Terminal Aerodrome Forecast
Issued by NWS Louisville, KY

Home | Current Version | Previous Version | Text Only | Print | Product List | Glossary On
Versions: 1 2 3 4 5 6 7 8 9 10 11 12 13 14 15
000
FTUS43 KLMK 271120
TAFLEX
TAF
KLEX 271120Z 2712/2812 15004KT P6SM -SHRA OVC035
      TEMPO 2712/2714 BKN027
     FM271500 18010KT P6SM OVC050
     FM281100 17007KT P6SM OVC035=

USA.gov is the U.S. government's official web portal to all federal, state and local government web resources and services.